Time;durP1;ratioP1;P1;durP2;ratioP2;P2;SDS_P1;SDS_P2;PMS_P1;PMS_P2;Temp;Humidity;BMP_temperature;BMP_pressure;BME280_temperature;BME280_humidity;BME280_pressure;Samples;Min_cycle;Max_cycle;Signal;HPM_P1;HPM_P2
2022/08/24 00:00:12;;;;;;;2.35;2.13;;;16.80;84.00;;;;;;5015640;28;20022;-80
2022/08/24 00:02:38;;;;;;;2.40;2.20;;;16.80;83.80;;;;;;5016829;28;20073;-81
2022/08/24 00:05:04;;;;;;;2.30;2.10;;;16.80;83.60;;;;;;5019731;28;20022;-81
2022/08/24 00:07:30;;;;;;;2.45;1.92;;;16.80;83.70;;;;;;5032028;28;20018;-80
2022/08/24 00:09:56;;;;;;;2.50;2.25;;;16.80;83.30;;;;;;5023173;28;20465;-80
2022/08/24 00:12:22;;;;;;;2.85;1.80;;;16.80;82.90;;;;;;5018710;28;20033;-80
2022/08/24 00:14:49;;;;;;;2.95;2.10;;;16.80;82.60;;;;;;5017486;28;20472;-81
2022/08/24 00:17:15;;;;;;;2.00;1.80;;;16.70;82.60;;;;;;5016674;28;20137;-80
2022/08/24 00:19:41;;;;;;;2.78;1.95;;;16.70;82.60;;;;;;5017610;28;20030;-80
2022/08/24 00:22:07;;;;;;;2.00;1.80;;;16.70;82.90;;;;;;5018224;28;20030;-80
2022/08/24 00:24:33;;;;;;;2.42;1.80;;;16.70;82.70;;;;;;5019282;28;20045;-80
2022/08/24 00:26:58;;;;;;;3.17;2.00;;;16.70;82.40;;;;;;5036265;28;20045;-80
2022/08/24 00:29:25;;;;;;;2.10;1.90;;;16.70;82.20;;;;;;5038568;28;20044;-80
2022/08/24 00:31:50;;;;;;;2.00;1.90;;;16.80;82.00;;;;;;5039176;28;20043;-80
2022/08/24 00:34:16;;;;;;;1.90;1.80;;;16.70;81.50;;;;;;5038297;28;20025;-80
2022/08/24 00:36:42;;;;;;;2.13;2.00;;;16.70;81.10;;;;;;5032675;28;20474;-80
2022/08/24 00:39:09;;;;;;;3.50;1.95;;;16.60;81.00;;;;;;5037510;28;20081;-81
2022/08/24 00:41:38;;;;;;;2.35;1.80;;;16.60;81.40;;;;;;5039082;28;20495;-81
2022/08/24 00:44:05;;;;;;;1.75;1.65;;;16.50;81.70;;;;;;5038216;28;20088;-80
2022/08/24 00:46:46;;;;;;;1.80;1.70;;;16.50;82.20;;;;;;5038455;28;20037;-80
2022/08/24 00:49:18;;;;;;;1.73;1.63;;;16.50;81.90;;;;;;5037807;28;20025;-80
2022/08/24 00:52:18;;;;;;;1.77;1.63;;;16.50;81.90;;;;;;5041858;28;20040;-81
2022/08/24 00:54:52;;;;;;;1.55;1.45;;;16.40;82.00;;;;;;5008968;28;20488;-80
2022/08/24 00:57:24;;;;;;;2.05;1.90;;;16.40;82.00;;;;;;5042077;28;20100;-79
2022/08/24 00:59:55;;;;;;;2.05;1.73;;;16.40;81.70;;;;;;5039058;28;20025;-80
2022/08/24 01:02:25;;;;;;;1.70;1.60;;;16.40;81.40;;;;;;5038625;28;20055;-80
2022/08/24 01:05:01;;;;;;;2.33;2.10;;;16.40;81.50;;;;;;5037377;28;20025;-80
2022/08/24 01:07:29;;;;;;;1.73;1.63;;;16.30;81.10;;;;;;5021609;28;20491;-81
2022/08/24 01:09:58;;;;;;;2.50;1.67;;;16.30;81.00;;;;;;5039024;28;20044;-80
2022/08/24 01:12:25;;;;;;;1.98;1.80;;;16.30;81.20;;;;;;5038631;28;20029;-81
2022/08/24 01:14:51;;;;;;;1.80;1.40;;;16.20;81.10;;;;;;5039192;28;20025;-80
2022/08/24 01:20:03;;;;;;;2.25;1.60;;;16.20;81.20;;;;;;5038041;28;20163;-80
2022/08/24 01:22:29;;;;;;;1.60;1.50;;;16.10;81.50;;;;;;5038620;28;20029;-80
2022/08/24 01:24:55;;;;;;;1.77;1.60;;;16.10;81.60;;;;;;5048498;28;20017;-80
2022/08/24 01:27:21;;;;;;;1.98;1.80;;;16.10;82.00;;;;;;5013618;28;20033;-81
2022/08/24 01:29:48;;;;;;;1.83;1.65;;;16.10;82.20;;;;;;5018424;28;20100;-80
2022/08/24 01:32:15;;;;;;;1.55;1.45;;;16.10;82.50;;;;;;5000798;28;20038;-80
2022/08/24 01:34:41;;;;;;;1.77;1.67;;;16.00;82.80;;;;;;5018419;28;20030;-81
2022/08/24 01:37:09;;;;;;;2.78;2.13;;;15.90;83.20;;;;;;4991740;28;20550;-80
2022/08/24 01:39:56;;;;;;;1.60;1.50;;;15.90;83.80;;;;;;5017949;28;20025;-80
2022/08/24 01:42:22;;;;;;;2.38;2.17;;;15.90;84.20;;;;;;5000595;28;20029;-80
2022/08/24 01:44:48;;;;;;;3.15;2.30;;;15.80;85.10;;;;;;5018727;28;20033;-81
2022/08/24 01:47:15;;;;;;;1.90;1.70;;;15.80;85.70;;;;;;5017936;28;20034;-80
2022/08/24 01:49:44;;;;;;;2.13;1.60;;;15.70;86.20;;;;;;5018265;28;20038;-81
2022/08/24 01:52:14;;;;;;;1.90;1.80;;;15.70;86.60;;;;;;5018124;28;20018;-81
2022/08/24 01:54:41;;;;;;;2.13;1.92;;;15.70;86.80;;;;;;5018702;28;20074;-80
2022/08/24 01:57:08;;;;;;;1.80;1.70;;;15.70;86.90;;;;;;5017583;28;20036;-81
2022/08/24 01:59:34;;;;;;;2.67;2.28;;;15.60;87.30;;;;;;5017908;28;20099;-79
2022/08/24 02:02:12;;;;;;;2.97;1.92;;;15.60;87.80;;;;;;5018713;28;20388;-81
2022/08/24 02:04:38;;;;;;;1.77;1.67;;;15.60;88.30;;;;;;5018456;28;20090;-80
2022/08/24 02:07:04;;;;;;;1.80;1.70;;;15.60;88.50;;;;;;5009008;28;20062;-80
2022/08/24 02:09:30;;;;;;;2.22;2.03;;;15.70;88.40;;;;;;5000040;28;20029;-80
2022/08/24 02:11:56;;;;;;;1.80;1.70;;;15.60;88.10;;;;;;5017494;28;20026;-80
2022/08/24 02:14:21;;;;;;;2.83;1.95;;;15.70;88.20;;;;;;5017643;28;20037;-80
2022/08/24 02:16:47;;;;;;;2.45;2.05;;;15.60;88.10;;;;;;5019320;28;20026;-80
2022/08/24 02:19:15;;;;;;;1.90;1.75;;;15.60;88.30;;;;;;5025739;28;20021;-80
2022/08/24 02:21:41;;;;;;;1.70;1.60;;;15.60;88.50;;;;;;5020025;28;20021;-80
2022/08/24 02:24:07;;;;;;;2.20;1.95;;;15.60;88.60;;;;;;4997913;28;20507;-80
2022/08/24 02:26:32;;;;;;;2.38;2.08;;;15.60;88.60;;;;;;5033096;28;20044;-80
2022/08/24 02:28:58;;;;;;;1.80;1.70;;;15.60;89.10;;;;;;5036589;28;20480;-79
2022/08/24 02:31:24;;;;;;;2.45;2.20;;;15.50;89.30;;;;;;5035306;28;20056;-80
2022/08/24 02:33:49;;;;;;;1.98;1.85;;;15.50;89.50;;;;;;5045269;28;20030;-79
2022/08/24 02:36:15;;;;;;;2.78;2.35;;;15.50;90.00;;;;;;5033278;28;20051;-80
2022/08/24 02:38:41;;;;;;;2.67;2.10;;;15.50;90.20;;;;;;5027590;28;20021;-80
2022/08/24 02:41:08;;;;;;;2.13;2.03;;;15.50;90.40;;;;;;5035615;28;20017;-79
2022/08/24 02:43:34;;;;;;;2.58;2.05;;;15.50;90.30;;;;;;5034808;28;20542;-80
2022/08/24 02:46:00;;;;;;;2.10;1.83;;;15.40;90.40;;;;;;5035515;28;20029;-79
2022/08/24 02:48:26;;;;;;;2.67;2.05;;;15.40;90.60;;;;;;5034844;28;20026;-80
2022/08/24 02:50:51;;;;;;;2.13;1.95;;;15.40;90.70;;;;;;5036994;28;20033;-79
2022/08/24 02:53:19;;;;;;;1.75;1.65;;;15.40;90.70;;;;;;5036336;28;20029;-81
2022/08/24 02:55:45;;;;;;;1.70;1.60;;;15.40;90.60;;;;;;5035804;28;20437;-80
2022/08/24 02:58:12;;;;;;;1.92;1.55;;;15.40;90.50;;;;;;5016822;28;20021;-80
2022/08/24 03:00:40;;;;;;;2.20;1.92;;;15.40;90.40;;;;;;5017002;28;20029;-81
2022/08/24 03:03:07;;;;;;;1.92;1.73;;;15.40;90.30;;;;;;5016751;28;20041;-81
2022/08/24 03:05:33;;;;;;;1.90;1.80;;;15.40;90.40;;;;;;5023858;28;20028;-80
2022/08/24 03:07:59;;;;;;;1.75;1.65;;;15.30;90.40;;;;;;5031464;28;20099;-80
2022/08/24 03:10:25;;;;;;;2.72;2.10;;;15.30;90.60;;;;;;5048902;28;20021;-79
2022/08/24 03:12:51;;;;;;;1.80;1.70;;;15.30;90.90;;;;;;5051298;28;20060;-80
2022/08/24 03:15:20;;;;;;;2.38;1.90;;;15.20;91.00;;;;;;5055926;28;20120;-80
2022/08/24 03:17:46;;;;;;;2.20;2.00;;;15.30;91.00;;;;;;5055967;28;20054;-79
2022/08/24 03:20:15;;;;;;;1.98;1.88;;;15.30;90.90;;;;;;5056670;28;20053;-80
2022/08/24 03:22:41;;;;;;;2.10;1.90;;;15.20;90.90;;;;;;5062358;28;20017;-79
2022/08/24 03:25:08;;;;;;;2.50;2.30;;;15.20;91.10;;;;;;5050427;28;20033;-81
2022/08/24 03:27:35;;;;;;;3.22;1.95;;;15.20;91.30;;;;;;5016365;28;20211;-81
2022/08/24 03:30:00;;;;;;;1.92;1.75;;;15.20;91.40;;;;;;5015308;28;20026;-80
2022/08/24 03:32:26;;;;;;;2.08;1.88;;;15.10;91.60;;;;;;5010049;28;20105;-80
2022/08/24 03:34:53;;;;;;;2.13;1.95;;;15.10;91.60;;;;;;5013539;28;20022;-80
2022/08/24 03:37:19;;;;;;;2.70;2.15;;;15.00;91.80;;;;;;4997249;28;20030;-79
2022/08/24 03:39:46;;;;;;;2.05;1.90;;;15.00;92.00;;;;;;5015687;28;20037;-80
2022/08/24 03:42:13;;;;;;;2.65;2.45;;;15.00;91.90;;;;;;4997863;28;20480;-80
2022/08/24 03:44:40;;;;;;;6.68;2.35;;;14.90;92.00;;;;;;5018696;28;20468;-79
2022/08/24 03:47:08;;;;;;;2.75;2.25;;;14.90;92.10;;;;;;4999446;28;20724;-79
2022/08/24 03:49:34;;;;;;;3.30;2.30;;;14.80;92.20;;;;;;5016477;28;20026;-79
2022/08/24 03:52:00;;;;;;;1.98;1.77;;;14.80;92.00;;;;;;5017696;28;20029;-79
2022/08/24 03:54:26;;;;;;;2.10;1.90;;;14.80;92.00;;;;;;5017018;28;20030;-79
2022/08/24 03:56:51;;;;;;;2.05;1.88;;;14.80;91.90;;;;;;5018381;28;20069;-80
2022/08/24 03:59:17;;;;;;;3.72;2.15;;;14.80;91.90;;;;;;5028055;28;20071;-79
2022/08/24 04:01:43;;;;;;;2.83;2.13;;;14.80;91.80;;;;;;5033619;28;20034;-80
2022/08/24 04:04:09;;;;;;;2.60;2.40;;;14.80;91.90;;;;;;5022763;28;20064;-81
2022/08/24 04:06:35;;;;;;;2.40;2.20;;;14.80;92.00;;;;;;5002392;28;20026;-80
2022/08/24 04:09:01;;;;;;;2.42;2.22;;;14.70;92.10;;;;;;5008873;28;20009;-79
2022/08/24 04:11:28;;;;;;;4.75;1.95;;;14.70;92.00;;;;;;5026621;28;20030;-79
2022/08/24 04:13:56;;;;;;;2.83;2.20;;;14.70;92.00;;;;;;5025098;28;20479;-79
2022/08/24 04:16:23;;;;;;;3.45;2.03;;;14.70;91.90;;;;;;5027964;28;20018;-80
2022/08/24 04:18:49;;;;;;;2.08;1.85;;;14.70;91.90;;;;;;5008194;28;20128;-80
2022/08/24 04:21:20;;;;;;;2.53;2.10;;;14.70;91.80;;;;;;5023105;28;20060;-80
2022/08/24 04:23:47;;;;;;;2.47;2.15;;;14.80;91.70;;;;;;5023234;28;20037;-81
2022/08/24 04:26:14;;;;;;;3.42;2.38;;;14.70;91.70;;;;;;5017135;28;20123;-80
2022/08/24 04:28:39;;;;;;;3.15;2.80;;;14.70;91.80;;;;;;5015336;28;20151;-81
2022/08/24 04:31:06;;;;;;;6.93;2.85;;;14.70;91.90;;;;;;5017137;28;20105;-79
2022/08/24 04:33:32;;;;;;;5.78;2.88;;;14.70;91.90;;;;;;5017840;28;20033;-80
2022/08/24 04:35:57;;;;;;;2.58;2.10;;;14.70;91.90;;;;;;5020040;28;20093;-80
2022/08/24 04:38:23;;;;;;;4.22;3.20;;;14.70;91.90;;;;;;5011971;28;20025;-80
2022/08/24 04:40:49;;;;;;;3.15;2.65;;;14.70;91.90;;;;;;5003510;28;20580;-81
2022/08/24 04:43:16;;;;;;;2.28;2.08;;;14.70;92.00;;;;;;5001729;28;20137;-80
2022/08/24 04:45:45;;;;;;;3.25;2.45;;;14.70;92.10;;;;;;5019610;28;20022;-81
2022/08/24 04:48:11;;;;;;;2.35;2.08;;;14.70;92.30;;;;;;5019219;28;20025;-81
2022/08/24 04:50:39;;;;;;;2.08;1.98;;;14.70;92.40;;;;;;5009985;28;20041;-80
2022/08/24 04:53:06;;;;;;;2.97;2.55;;;14.80;92.50;;;;;;5001199;28;20057;-80
2022/08/24 04:55:33;;;;;;;2.40;2.20;;;14.80;92.70;;;;;;5018700;28;20022;-80
2022/08/24 04:57:59;;;;;;;2.67;2.28;;;14.80;92.70;;;;;;5018138;28;20028;-80
2022/08/24 05:00:25;;;;;;;3.00;2.35;;;14.80;92.70;;;;;;5002418;28;20026;-81
2022/08/24 05:02:50;;;;;;;3.80;2.50;;;14.80;92.70;;;;;;5025036;28;20536;-80
2022/08/24 05:05:16;;;;;;;3.00;2.63;;;14.80;92.70;;;;;;5017453;28;20037;-80
2022/08/24 05:07:43;;;;;;;2.60;2.40;;;14.90;92.70;;;;;;5014429;28;20539;-80
2022/08/24 05:10:10;;;;;;;2.58;2.38;;;14.90;92.60;;;;;;5010799;28;20030;-80
2022/08/24 05:12:36;;;;;;;2.30;2.20;;;14.90;92.50;;;;;;5015856;28;20049;-81
2022/08/24 05:15:03;;;;;;;4.43;3.10;;;15.00;92.40;;;;;;5030126;28;20029;-83
2022/08/24 05:17:30;;;;;;;3.97;2.75;;;15.00;92.40;;;;;;5028293;28;20085;-81
2022/08/24 05:19:57;;;;;;;2.97;2.65;;;15.10;92.20;;;;;;5031021;28;20037;-82
2022/08/24 05:22:23;;;;;;;2.55;2.30;;;15.10;92.10;;;;;;5038267;28;20152;-82
2022/08/24 05:24:49;;;;;;;2.58;2.22;;;15.10;91.90;;;;;;5019981;28;20029;-81
2022/08/24 05:27:16;;;;;;;4.63;2.40;;;15.20;91.80;;;;;;5049125;28;20093;-82
2022/08/24 05:29:41;;;;;;;2.35;2.10;;;15.30;91.50;;;;;;5032886;28;20071;-83
2022/08/24 05:32:07;;;;;;;4.10;2.15;;;15.30;91.20;;;;;;5050734;28;20025;-84
2022/08/24 05:34:32;;;;;;;3.17;2.38;;;15.30;91.00;;;;;;5050438;28;20081;-83
2022/08/24 05:36:58;;;;;;;2.72;2.50;;;15.40;90.90;;;;;;5026098;28;20042;-82
2022/08/24 05:39:24;;;;;;;4.10;2.50;;;15.40;90.80;;;;;;5010107;28;20037;-82
2022/08/24 05:41:50;;;;;;;2.75;2.45;;;15.50;90.60;;;;;;5042714;28;20487;-82
2022/08/24 05:44:17;;;;;;;4.68;2.55;;;15.60;90.40;;;;;;5027974;28;20018;-84
2022/08/24 05:46:43;;;;;;;2.63;2.30;;;15.60;90.10;;;;;;5023168;28;20021;-83
2022/08/24 05:49:10;;;;;;;2.78;2.50;;;15.60;89.50;;;;;;5017693;28;20528;-83
2022/08/24 05:51:37;;;;;;;2.58;2.10;;;15.70;88.60;;;;;;5020240;28;20052;-83
2022/08/24 05:54:03;;;;;;;5.03;2.67;;;15.80;88.50;;;;;;5022338;28;20018;-82
2022/08/24 05:56:32;;;;;;;2.70;2.15;;;15.80;88.00;;;;;;5021272;28;20030;-82
2022/08/24 05:58:58;;;;;;;4.47;2.20;;;15.90;87.90;;;;;;5020220;28;20033;-83
2022/08/24 06:01:25;;;;;;;2.63;2.42;;;15.90;87.40;;;;;;5023592;28;20825;-83
2022/08/24 06:03:52;;;;;;;2.38;2.17;;;16.00;87.00;;;;;;5001788;28;20338;-82
2022/08/24 06:06:19;;;;;;;2.53;2.30;;;16.10;86.10;;;;;;4993522;28;20034;-83
2022/08/24 06:08:47;;;;;;;7.57;3.17;;;16.10;85.40;;;;;;5010751;28;20029;-83
2022/08/24 06:11:39;;;;;;;3.58;2.20;;;16.10;85.20;;;;;;5000980;28;20018;-83
2022/08/24 06:14:09;;;;;;;3.75;2.45;;;16.20;85.20;;;;;;4982274;28;20031;-82
2022/08/24 06:16:36;;;;;;;3.35;2.55;;;16.30;85.20;;;;;;4982216;28;20473;-83
2022/08/24 06:19:03;;;;;;;2.33;2.05;;;16.40;84.60;;;;;;5000071;28;20022;-82
2022/08/24 06:21:31;;;;;;;2.38;2.00;;;16.50;84.00;;;;;;4999678;28;20073;-82
2022/08/24 06:23:57;;;;;;;4.72;1.92;;;16.60;82.20;;;;;;4999736;28;20030;-83
2022/08/24 06:29:08;;;;;;;2.05;1.83;;;16.80;81.10;;;;;;4999342;28;20040;-82
2022/08/24 06:31:36;;;;;;;1.83;1.73;;;16.90;80.30;;;;;;4999694;28;20460;-82
2022/08/24 06:34:02;;;;;;;2.00;1.52;;;17.50;80.20;;;;;;5000067;28;20076;-83
2022/08/24 06:36:28;;;;;;;1.38;1.27;;;20.70;73.90;;;;;;5013466;28;20412;-83
2022/08/24 06:38:53;;;;;;;2.45;1.63;;;24.40;63.80;;;;;;5018850;28;20029;-83
2022/08/24 06:41:20;;;;;;;1.67;1.55;;;27.40;53.90;;;;;;5020266;28;20030;-83
2022/08/24 06:43:46;;;;;;;1.30;1.20;;;28.80;49.00;;;;;;5019781;28;20036;-83
2022/08/24 06:46:12;;;;;;;4.22;1.90;;;27.50;47.40;;;;;;5020121;28;20053;-84
2022/08/24 06:48:38;;;;;;;2.42;1.45;;;24.90;49.60;;;;;;5020108;28;20033;-83
2022/08/24 06:51:10;;;;;;;3.22;1.67;;;22.70;53.60;;;;;;5012779;28;20030;-82
2022/08/24 06:53:36;;;;;;;2.53;1.90;;;21.30;57.60;;;;;;5019806;28;20022;-83
2022/08/24 06:56:02;;;;;;;2.63;1.88;;;20.30;60.70;;;;;;5002235;28;20034;-82
2022/08/24 06:58:27;;;;;;;1.60;1.50;;;19.70;63.20;;;;;;5014815;28;20018;-84
2022/08/24 07:00:55;;;;;;;1.85;1.70;;;19.20;65.00;;;;;;5029831;28;20030;-83
2022/08/24 07:03:22;;;;;;;4.72;2.13;;;19.00;66.30;;;;;;5024444;28;20026;-83
2022/08/24 07:05:52;;;;;;;1.77;1.48;;;18.80;67.40;;;;;;5022890;28;20018;-83
2022/08/24 07:08:19;;;;;;;2.97;1.92;;;18.70;68.20;;;;;;5012968;28;20018;-82
2022/08/24 07:10:45;;;;;;;2.20;1.90;;;18.70;69.10;;;;;;5023241;28;20048;-84
2022/08/24 07:13:12;;;;;;;3.25;2.10;;;18.70;69.60;;;;;;5003368;28;20052;-83
2022/08/24 07:15:38;;;;;;;5.15;2.03;;;18.70;69.60;;;;;;5022526;28;20022;-83
2022/08/24 07:18:08;;;;;;;4.35;2.67;;;18.70;69.80;;;;;;5023003;28;20080;-82
2022/08/24 07:20:38;;;;;;;1.73;1.63;;;18.80;69.90;;;;;;5023002;28;20025;-84
2022/08/24 07:23:05;;;;;;;2.10;1.88;;;18.90;69.90;;;;;;5022529;28;20022;-84
2022/08/24 07:25:31;;;;;;;3.03;2.00;;;19.10;69.90;;;;;;5028345;28;20041;-83
2022/08/24 07:27:58;;;;;;;2.55;1.77;;;19.10;69.70;;;;;;5039024;28;20120;-83
2022/08/24 07:30:28;;;;;;;2.30;1.70;;;19.30;69.60;;;;;;5038441;28;20021;-82
2022/08/24 07:32:56;;;;;;;3.22;1.60;;;19.40;69.40;;;;;;5036502;28;20044;-83
2022/08/24 07:35:24;;;;;;;4.03;2.17;;;19.50;69.20;;;;;;5035438;28;20032;-81
2022/08/24 07:37:49;;;;;;;2.92;2.10;;;19.60;69.00;;;;;;5028905;28;20021;-82
2022/08/24 07:40:18;;;;;;;4.05;2.15;;;19.70;68.60;;;;;;5035550;28;20044;-82
2022/08/24 07:42:49;;;;;;;1.90;1.80;;;19.80;68.10;;;;;;5018008;28;20033;-81
2022/08/24 07:45:15;;;;;;;1.77;1.50;;;19.80;67.80;;;;;;5025267;28;20057;-82
2022/08/24 07:47:41;;;;;;;2.88;1.88;;;19.80;67.70;;;;;;5021377;28;20030;-82
2022/08/24 07:50:07;;;;;;;4.50;2.00;;;19.90;67.70;;;;;;5017709;28;20086;-82
2022/08/24 07:52:33;;;;;;;2.20;1.88;;;20.00;67.70;;;;;;5024454;28;20026;-82
2022/08/24 07:54:59;;;;;;;2.60;1.70;;;20.10;67.30;;;;;;5016422;28;20508;-82
2022/08/24 07:57:25;;;;;;;5.57;2.22;;;20.20;66.50;;;;;;5020499;28;20081;-82
2022/08/24 07:59:51;;;;;;;5.63;2.22;;;20.40;65.90;;;;;;5019731;28;20026;-83
2022/08/24 08:02:17;;;;;;;4.35;2.15;;;20.50;65.90;;;;;;5017872;28;20022;-84
2022/08/24 08:04:42;;;;;;;2.17;1.98;;;20.60;65.60;;;;;;5022829;28;20037;-83
2022/08/24 08:07:08;;;;;;;1.77;1.67;;;20.80;64.40;;;;;;5051040;28;20457;-84
2022/08/24 08:09:38;;;;;;;1.95;1.67;;;21.00;63.90;;;;;;5037513;28;20033;-82
2022/08/24 08:12:05;;;;;;;1.60;1.48;;;21.10;63.40;;;;;;5037736;28;20025;-84
2022/08/24 08:14:31;;;;;;;1.85;1.70;;;21.30;63.30;;;;;;5038258;28;20100;-83
2022/08/24 08:16:56;;;;;;;3.28;1.98;;;21.50;63.20;;;;;;5038951;28;20049;-83
2022/08/24 08:19:22;;;;;;;2.85;1.95;;;21.70;62.90;;;;;;5038479;28;20025;-82
2022/08/24 08:24:36;;;;;;;1.95;1.75;;;21.90;61.20;;;;;;5041295;28;20062;-84
2022/08/24 08:27:06;;;;;;;2.20;1.70;;;22.20;60.30;;;;;;5037668;28;20192;-83
2022/08/24 08:29:33;;;;;;;2.92;1.50;;;22.40;59.00;;;;;;5036555;28;20502;-82
2022/08/24 08:31:59;;;;;;;2.97;1.77;;;22.50;58.70;;;;;;5041061;28;20092;-83
2022/08/24 08:34:26;;;;;;;4.32;1.73;;;22.40;58.40;;;;;;5039849;28;20071;-83
2022/08/24 08:36:53;;;;;;;2.08;1.90;;;22.40;58.50;;;;;;5047504;28;20026;-83
2022/08/24 08:39:20;;;;;;;1.50;1.40;;;22.50;58.90;;;;;;5041682;28;20018;-83
2022/08/24 08:42:02;;;;;;;1.55;1.45;;;22.70;58.80;;;;;;5024402;28;20049;-84
2022/08/24 08:44:58;;;;;;;1.70;1.60;;;23.00;58.40;;;;;;5030665;28;20017;-83
2022/08/24 08:47:52;;;;;;;2.00;1.90;;;23.20;57.80;;;;;;5027442;28;20033;-83
2022/08/24 08:50:32;;;;;;;3.60;1.88;;;23.30;57.60;;;;;;5021963;28;20034;-83
2022/08/24 08:53:20;;;;;;;6.65;2.58;;;23.30;58.10;;;;;;5037686;28;20041;-82
2022/08/24 08:56:14;;;;;;;1.92;1.70;;;23.50;58.20;;;;;;5048660;28;20055;-83
2022/08/24 08:58:49;;;;;;;2.20;1.70;;;23.50;58.70;;;;;;5040947;28;20062;-82
2022/08/24 09:01:40;;;;;;;5.55;1.83;;;23.70;58.40;;;;;;5042734;28;20026;-82
2022/08/24 09:04:37;;;;;;;4.07;2.30;;;23.90;58.50;;;;;;5041807;28;20025;-83
2022/08/24 09:07:10;;;;;;;2.22;1.85;;;24.10;58.20;;;;;;5030691;28;20140;-83
2022/08/24 09:10:12;;;;;;;5.07;2.22;;;24.20;57.90;;;;;;5037559;28;20686;-83
2022/08/24 09:12:54;;;;;;;5.28;1.80;;;24.20;57.60;;;;;;5041639;28;20483;-84
2022/08/24 09:15:38;;;;;;;2.63;2.20;;;24.40;57.50;;;;;;5041892;28;20029;-82
2022/08/24 09:18:23;;;;;;;2.60;2.25;;;24.60;57.20;;;;;;5041042;28;20022;-83
2022/08/24 09:20:54;;;;;;;3.97;2.25;;;24.60;57.70;;;;;;5041113;28;20024;-83
2022/08/24 09:23:49;;;;;;;2.47;1.77;;;24.80;56.60;;;;;;5041932;28;20023;-84
2022/08/24 09:26:32;;;;;;;2.00;1.77;;;25.10;56.10;;;;;;5040850;28;20041;-83
2022/08/24 09:29:22;;;;;;;2.25;1.65;;;25.30;55.90;;;;;;5049780;28;20033;-83
2022/08/24 09:32:08;;;;;;;3.15;1.67;;;25.40;55.40;;;;;;5041169;28;20377;-82
2022/08/24 09:34:59;;;;;;;2.00;1.90;;;25.50;55.40;;;;;;5040661;28;20487;-83
2022/08/24 09:37:33;;;;;;;4.15;2.28;;;25.50;55.50;;;;;;5032520;28;20121;-84
2022/08/24 09:40:02;;;;;;;2.63;1.65;;;25.50;55.10;;;;;;5037178;28;20033;-83
2022/08/24 09:43:11;;;;;;;3.80;1.98;;;25.40;55.30;;;;;;5040894;28;20028;-83
2022/08/24 09:46:07;;;;;;;2.90;2.15;;;25.30;55.30;;;;;;5039852;28;20049;-83
2022/08/24 09:48:51;;;;;;;2.47;1.73;;;25.20;55.80;;;;;;5040724;28;20030;-84
2022/08/24 09:51:29;;;;;;;2.97;1.98;;;25.30;55.80;;;;;;5041244;28;20021;-84
2022/08/24 09:54:25;;;;;;;2.00;1.90;;;25.40;54.70;;;;;;5040324;28;20025;-83
2022/08/24 09:57:03;;;;;;;2.17;1.90;;;25.60;55.30;;;;;;5021426;28;20037;-83
2022/08/24 09:59:56;;;;;;;2.10;1.70;;;25.70;55.50;;;;;;5040904;28;20025;-84
2022/08/24 10:02:34;;;;;;;1.95;1.83;;;26.10;54.60;;;;;;5041053;28;20488;-84
2022/08/24 10:05:28;;;;;;;1.80;1.70;;;26.50;54.20;;;;;;5038467;28;20033;-84
2022/08/24 10:08:02;;;;;;;2.28;2.10;;;26.70;53.60;;;;;;5025328;28;20037;-83
2022/08/24 10:11:00;;;;;;;3.30;2.42;;;26.50;54.20;;;;;;5032122;28;20029;-85
2022/08/24 10:13:47;;;;;;;2.50;2.30;;;26.40;54.40;;;;;;5007806;28;20151;-83
2022/08/24 10:16:37;;;;;;;4.10;2.20;;;26.10;55.50;;;;;;5039332;28;20036;-83
2022/08/24 10:19:15;;;;;;;3.72;2.40;;;26.00;55.40;;;;;;5040442;28;20057;-82
2022/08/24 10:22:19;;;;;;;4.32;2.85;;;25.90;56.10;;;;;;5041676;28;20526;-82
2022/08/24 10:25:13;;;;;;;4.43;2.15;;;25.80;56.30;;;;;;5045124;28;20048;-84
2022/08/24 10:27:42;;;;;;;3.38;2.30;;;26.00;56.60;;;;;;5016448;28;20484;-83
2022/08/24 10:30:19;;;;;;;3.55;2.00;;;26.10;55.40;;;;;;5073462;22;20522;-88
2022/08/24 10:33:03;;;;;;;3.38;2.35;;;26.10;56.00;;;;;;5035313;28;20044;-87
2022/08/24 10:36:00;;;;;;;3.00;1.80;;;26.00;56.10;;;;;;5030224;28;20096;-87
2022/08/24 10:42:04;;;;;;;4.35;2.33;;;26.00;56.70;;;;;;5023379;28;20068;-88
2022/08/24 10:45:02;;;;;;;3.58;2.28;;;26.20;56.20;;;;;;5027705;28;20052;-87
2022/08/24 10:47:31;;;;;;;2.92;2.25;;;26.40;56.20;;;;;;5023786;28;20081;-87
2022/08/24 10:50:25;;;;;;;2.80;2.30;;;26.40;56.40;;;;;;5005816;28;20056;-88
2022/08/24 10:53:19;;;;;;;3.60;2.13;;;26.40;56.60;;;;;;5044967;28;20017;-87
2022/08/24 10:55:50;;;;;;;2.92;2.15;;;26.50;56.90;;;;;;5032469;28;20040;-89
2022/08/24 10:58:36;;;;;;;2.38;2.00;;;26.60;55.60;;;;;;5052173;28;20029;-87
2022/08/24 11:01:25;;;;;;;2.28;1.77;;;26.60;54.90;;;;;;5033863;28;20021;-86
2022/08/24 11:03:56;;;;;;;2.17;2.05;;;26.50;54.80;;;;;;5031536;28;20032;-86
2022/08/24 11:06:25;;;;;;;3.20;2.03;;;26.70;54.50;;;;;;5021426;28;20037;-86
2022/08/24 11:08:58;;;;;;;1.83;1.73;;;26.90;54.00;;;;;;5038363;28;20032;-86
2022/08/24 11:11:38;;;;;;;3.42;1.75;;;26.90;53.90;;;;;;5041852;28;20353;-86
2022/08/24 11:14:23;;;;;;;2.72;2.20;;;27.00;53.80;;;;;;5022519;28;20036;-86
2022/08/24 11:16:50;;;;;;;1.70;1.60;;;27.30;53.60;;;;;;5021783;28;20044;-86
2022/08/24 11:19:33;;;;;;;2.22;2.03;;;27.60;53.20;;;;;;5023729;28;20053;-86
2022/08/24 11:22:23;;;;;;;2.28;2.10;;;27.70;52.60;;;;;;5038625;28;20032;-85
2022/08/24 11:24:53;;;;;;;1.95;1.83;;;27.50;52.50;;;;;;5021759;28;20513;-86
2022/08/24 11:27:45;;;;;;;3.05;2.03;;;27.10;53.20;;;;;;5022131;28;20025;-85
2022/08/24 11:30:24;;;;;;;3.00;1.80;;;26.90;53.70;;;;;;5024212;28;20057;-86
2022/08/24 11:33:01;;;;;;;1.60;1.50;;;26.90;54.00;;;;;;5019191;28;20037;-86
2022/08/24 11:35:36;;;;;;;1.90;1.80;;;27.30;53.30;;;;;;5019505;28;20100;-86
2022/08/24 11:38:16;;;;;;;2.53;1.75;;;27.60;53.30;;;;;;5019901;28;20029;-86
2022/08/24 11:41:01;;;;;;;3.88;2.28;;;28.00;53.20;;;;;;5020421;28;20419;-85
2022/08/24 11:44:12;;;;;;;3.80;2.38;;;28.40;51.60;;;;;;5037863;28;20480;-87
2022/08/24 11:47:09;;;;;;;2.60;2.40;;;28.60;51.90;;;;;;5021517;28;20017;-86
2022/08/24 11:49:53;;;;;;;1.83;1.73;;;28.70;52.40;;;;;;5020314;28;20487;-86
2022/08/24 11:52:47;;;;;;;2.65;1.90;;;28.50;52.10;;;;;;5036477;28;20079;-86
2022/08/24 11:55:35;;;;;;;1.98;1.88;;;28.50;51.50;;;;;;5005816;28;20049;-87
2022/08/24 11:58:10;;;;;;;3.17;2.05;;;;;;;;;;5038025;28;20116;-86
2022/08/24 12:00:47;;;;;;;2.55;2.00;;;;;;;;;;5036972;28;20055;-87
2022/08/24 12:03:13;;;;;;;3.28;2.25;;;;;;;;;;5005801;28;20113;-86
2022/08/24 12:05:44;;;;;;;2.10;2.00;;;;;;;;;;5022628;28;20026;-85
2022/08/24 12:08:25;;;;;;;2.20;2.10;;;;;;;;;;5022200;28;20032;-85
2022/08/24 12:11:07;;;;;;;2.15;1.95;;;;;;;;;;5042051;28;20009;-85
2022/08/24 12:13:33;;;;;;;;;;;;;;;;;;5041137;28;20021;-85
2022/08/24 12:16:18;;;;;;;2.30;1.88;;;;;;;;;;5021085;28;19931;-85
2022/08/24 12:18:55;;;;;;;2.08;1.90;;;;;;;;;;5005932;28;20018;-86
2022/08/24 12:21:23;;;;;;;5.30;2.60;;;;;;;;;;5022262;28;20065;-86
2022/08/24 12:23:52;;;;;;;1.95;1.85;;;;;;;;;;5008319;28;20017;-86
2022/08/24 12:26:35;;;;;;;1.98;1.88;;;;;;;;;;5023559;28;20014;-85
2022/08/24 12:29:05;;;;;;;3.50;2.78;;;;;;;;;;5021389;28;20276;-86
2022/08/24 12:31:43;;;;;;;2.10;2.00;;;;;;;;;;5028445;28;20492;-85
2022/08/24 12:34:29;;;;;;;1.98;1.88;;;;;;;;;;5029979;28;20041;-86
2022/08/24 12:37:03;;;;;;;4.43;2.28;;;;;;;;;;5042857;28;20029;-86
2022/08/24 12:39:34;;;;;;;2.78;1.98;;;;;;;;;;5005220;28;20058;-86
2022/08/24 12:42:06;;;;;;;2.42;1.90;;;;;;;;;;5022991;28;20055;-86
2022/08/24 12:44:45;;;;;;;2.60;2.38;;;;;;;;;;5049433;28;20045;-87
2022/08/24 12:47:12;;;;;;;2.13;1.92;;;;;;;;;;5042798;28;20025;-85
2022/08/24 12:49:46;;;;;;;2.17;1.90;;;;;;;;;;5043899;28;20384;-86
2022/08/24 12:52:12;;;;;;;2.67;1.70;;;;;;;;;;5030973;28;20037;-85
2022/08/24 12:54:50;;;;;;;2.05;1.92;;;;;;;;;;5057239;28;20029;-84
2022/08/24 12:57:21;;;;;;;1.60;1.50;;;;;;;;;;5059230;28;20038;-84
2022/08/24 12:59:47;;;;;;;1.77;1.67;;;;;;;;;;5059499;28;20078;-86
2022/08/24 13:02:16;;;;;;;1.63;1.52;;;;;;;;;;5029060;28;20030;-87
2022/08/24 13:04:45;;;;;;;2.50;1.95;;;;;;;;;;5020167;28;20030;-84
2022/08/24 13:07:20;;;;;;;2.03;1.92;;;;;;;;;;5048732;28;20025;-82
2022/08/24 13:09:53;;;;;;;2.30;1.85;;;;;;;;;;5017879;28;20021;-84
2022/08/24 13:12:38;;;;;;;2.22;1.50;;;;;;;;;;5031323;28;20025;-84
2022/08/24 13:15:21;;;;;;;1.90;1.80;;;;;;;;;;5047603;28;20048;-84
2022/08/24 13:17:47;;;;;;;2.08;1.88;;;;;;;;;;5029059;28;20033;-85
2022/08/24 13:20:22;;;;;;;1.90;1.55;;;;;;;;;;5029335;28;20025;-83
2022/08/24 13:23:05;;;;;;;1.90;1.80;;;;;;;;;;5030276;28;20024;-84
2022/08/24 13:25:37;;;;;;;1.52;1.42;;;;;;;;;;5043555;28;20026;-84
2022/08/24 13:28:07;;;;;;;1.65;1.50;;;;;;;;;;5020738;28;20037;-83
2022/08/24 13:30:36;;;;;;;2.50;1.75;;;;;;;;;;5030933;28;20101;-83
2022/08/24 13:33:09;;;;;;;1.60;1.50;;;;;;;;;;5049285;28;20030;-84
2022/08/24 13:35:52;;;;;;;1.55;1.45;;;;;;;;;;5048839;28;20049;-84